Nearby METAR Reports

 

KMQS - Coatesville, Pennsylvania, USA
Distance from station: ENE 6mi, 10km
Updated: Sat, 21-Jul-2018 8:35am EDT
Partly cloudy
Partly cloudy
 Wind from E
Wind: E 12 mph , 19 km/h
Temperature: 68°F , 20°C
Dew Point: 61°F , 16°C
Humidity: 78%
Barometer: 30.06 inHg , 1017.9 hPa
Clouds: Partly cloudy
Visibility: 10 miles , 16 km
Cloud details: Partly cloudy 5500 ft
Partly cloudy 7000 ft
2018/07/21 12:35 KMQS 211235Z AUTO 08010KT 10SM SCT055 SCT070 20/16 A3006 RMK AO2
KLNS - Lancaster, Pennsylvania, USA
Distance from station: NW 21mi, 33km
Updated: Sat, 21-Jul-2018 8:53am EDT
Partly cloudy
Partly cloudy
 Wind from E
Wind: E 9 mph , 15 km/h
Temperature: 70°F , 21°C
Dew Point: 63°F , 17°C
Humidity: 78%
Barometer: 30.02 inHg , 1016.6 hPa
Clouds: Partly cloudy
Visibility: 10 miles , 16 km
Cloud details: Partly cloudy 2900 ft
Partly cloudy 11000 ft
2018/07/21 12:53 KLNS 211253Z 09008KT 10SM SCT029 SCT110 21/17 A3002 RMK AO2 SLP163 T02110167
 
KILG - Wilmington, Delaware, USA
Distance from station: SE 28mi, 45km
Updated: Sat, 21-Jul-2018 8:51am EDT
Clear
Clear
 Wind from ENE
Wind: ENE 12 mph , 19 km/h
Temperature: 72°F , 22°C
Dew Point: 61°F , 16°C
Humidity: 69%
Barometer: 30.03 inHg , 1016.9 hPa
Clouds: Clear
Visibility: 10 miles , 16 km
2018/07/21 12:51 KILG 211251Z 06010KT 10SM CLR 22/16 A3003 RMK AO2 SLP168 T02170156
KRDG - Reading, Pennsylvania, USA
Distance from station: N 29mi, 47km
Updated: Sat, 21-Jul-2018 8:54am EDT
Few Clouds
Few Clouds
 Wind from ESE
Wind: ESE 8 mph , 13 km/h
Temperature: 70°F , 21°C
Dew Point: 61°F , 16°C
Humidity: 73%
Barometer: 30.02 inHg , 1016.6 hPa
Clouds: Few Clouds
Visibility: 10 miles , 16 km
Cloud details: Few Clouds 2800 ft
2018/07/21 12:54 KRDG 211254Z 12007KT 10SM FEW028 21/16 A3002 RMK AO2 SLP169 T02110161
 
KPTW - Pottstown, Pennsylvania, USA
Distance from station: NE 30mi, 48km
Updated: Sat, 21-Jul-2018 8:54am EDT
Clear
Clear
 Wind from varies
Wind: varies 6 mph , 9 km/h
Temperature: 70°F , 21°C
Dew Point: 61°F , 16°C
Humidity: 73%
Barometer: 30.07 inHg , 1018.3 hPa
Clouds: Clear
Visibility: 10 miles , 16 km
2018/07/21 12:54 KPTW 211254Z AUTO VRB05KT 10SM CLR 21/16 A3007 RMK AO2 SLP177 T02060161